Aérodrome :







RETROUVEZ-NOUS SUR...

 
LOGIN :

S'inscrire | Disclaimer

   EN    FR    IT 

 









Légende :    VFR   VFR Marginal   IFR   IFR Intensif   IFR Très Intensif
Visi : 
Plafond : 
>= 8 km
>= 3000ft
5 à 8 km
1000 à 3000 ft
1500m à 5 km
500 à 1000 ft
800 à 1500m
200 à 500 ft
< 800m
< 200 ft
Symboles :   Orages  Brouillard  Fortes neiges  Fortes précipitations  Vent > 20 kt






- Altitude de l'aérodrome : 121 ft
- Code IATA : YBX


CYBX - Lourdes De Blanc Sablon

DERNIER METAR :
  • 180000Z 36029G43KT 2SM BLSN FEW060 M18/M21 A2969 RMK SC2 PRESFR SLP061

METARs EXPIRÉS :
  • 172346Z 36031G45KT 2 1/2SM BLSN FEW060 M18/M21 A2971 RMK SC2 SLP066
  • 172300Z 01024G32KT 15SM SKC M19/M24 A2972 RMK SLP070
  • 172200Z 36019G28KT 15SM SKC M19/M27 A2976 RMK SLP085
  • 172100Z 36023G34KT 15SM DRSN FEW020 M19/M26 A2977 RMK CU1 CU TR SLP087

TAF TAF CYBX
Valide du 17 à 20h jusqu'au 18 à 08h UTC


171938Z 1720/1808 36015G25KT P6SM FEW015
BECMG 1720/1722 35020G35KT
BECMG 1722/1724 35025G40KT
FM180200 35030G45KT P6SM FEW015 RMK NXT FCST BY 180200Z



MET'MAP, la Météo Aéronautique d'un coup d'oeil ! - Copyright ORBIFLY Décembre 2007 - Disclaimer

ORBIFLY MET'MAP TEAM :

Programmation & Développement : Alexandra Zaïnal
Sur une idée originale de : Baudouin d'Aumeries
Assistance à la programmation : Marc-Olivier Méhu
Soutien technique & logistique : Manuel Goepfert

Contact : metmap@orbifly.com




SOURCES & CREDITS :

   NOAA